sensor_id;sensor_type;location;lat;lon;timestamp;pressure;altitude;pressure_sealevel;temperature;humidity
41945;BME280;63122;52.424;13.458;2023-06-22T08:57:08;101338.47;;;25.34;73.89
41945;BME280;63122;52.424;13.458;2023-06-22T08:59:09;101335.50;;;25.35;67.77
41945;BME280;63122;52.424;13.458;2023-06-22T09:01:04;101337.88;;;25.43;69.55
41945;BME280;63122;52.424;13.458;2023-06-22T09:03:00;101342.44;;;25.43;74.18
41945;BME280;63122;52.424;13.458;2023-06-22T09:04:56;101343.50;;;25.42;77.23
41945;BME280;63122;52.424;13.458;2023-06-22T09:06:52;101341.16;;;25.45;80.36
41945;BME280;63122;52.424;13.458;2023-06-22T09:08:47;101336.72;;;25.51;80.22
41945;BME280;63122;52.424;13.458;2023-06-22T09:10:43;101334.25;;;25.62;79.42
41945;BME280;63122;52.424;13.458;2023-06-22T09:12:40;101324.03;;;25.64;76.91
41945;BME280;63122;52.424;13.458;2023-06-22T09:14:38;101329.19;;;25.65;77.70
41945;BME280;63122;52.424;13.458;2023-06-22T09:16:34;101322.59;;;25.73;76.57
41945;BME280;63122;52.424;13.458;2023-06-22T09:18:30;101316.13;;;25.74;71.63
41945;BME280;63122;52.424;13.458;2023-06-22T09:20:25;101326.00;;;25.80;70.17
41945;BME280;63122;52.424;13.458;2023-06-22T09:22:21;101326.00;;;25.80;69.63
41945;BME280;63122;52.424;13.458;2023-06-22T09:24:21;101330.34;;;25.81;64.45
41945;BME280;63122;52.424;13.458;2023-06-22T09:26:16;101315.06;;;25.87;66.20
41945;BME280;63122;52.424;13.458;2023-06-22T09:28:14;101327.19;;;25.84;67.54
41945;BME280;63122;52.424;13.458;2023-06-22T09:30:10;101327.97;;;25.97;68.91
41945;BME280;63122;52.424;13.458;2023-06-22T09:32:07;101322.91;;;26.00;63.84
41945;BME280;63122;52.424;13.458;2023-06-22T09:34:02;101328.31;;;26.00;63.85
41945;BME280;63122;52.424;13.458;2023-06-22T09:35:58;101321.25;;;25.99;65.15
41945;BME280;63122;52.424;13.458;2023-06-22T09:37:53;101327.72;;;25.98;64.93
41945;BME280;63122;52.424;13.458;2023-06-22T09:39:48;101327.66;;;26.10;64.00
41945;BME280;63122;52.424;13.458;2023-06-22T09:41:44;101319.69;;;26.15;64.19
41945;BME280;63122;52.424;13.458;2023-06-22T09:43:41;101320.75;;;26.14;61.64
41945;BME280;63122;52.424;13.458;2023-06-22T09:45:37;101315.00;;;26.11;60.64
41945;BME280;63122;52.424;13.458;2023-06-22T09:47:33;101319.81;;;26.21;59.89
41945;BME280;63122;52.424;13.458;2023-06-22T09:49:29;101320.25;;;26.29;58.78
41945;BME280;63122;52.424;13.458;2023-06-22T09:51:38;101317.41;;;26.24;58.39
41945;BME280;63122;52.424;13.458;2023-06-22T09:53:34;101312.50;;;26.21;59.01
41945;BME280;63122;52.424;13.458;2023-06-22T09:55:30;101309.31;;;26.24;57.32
41945;BME280;63122;52.424;13.458;2023-06-22T09:57:25;101311.94;;;26.19;55.44
41945;BME280;63122;52.424;13.458;2023-06-22T09:59:24;101312.13;;;26.29;53.56
41945;BME280;63122;52.424;13.458;2023-06-22T10:01:20;101311.31;;;26.29;55.84
41945;BME280;63122;52.424;13.458;2023-06-22T10:03:15;101308.69;;;26.34;56.64
41945;BME280;63122;52.424;13.458;2023-06-22T10:05:11;101312.97;;;26.47;58.09
41945;BME280;63122;52.424;13.458;2023-06-22T10:07:07;101299.63;;;26.40;55.04
41945;BME280;63122;52.424;13.458;2023-06-22T10:09:03;101307.06;;;26.50;56.88
41945;BME280;63122;52.424;13.458;2023-06-22T10:10:58;101307.44;;;26.54;58.49
41945;BME280;63122;52.424;13.458;2023-06-22T10:12:56;101307.00;;;26.62;58.09
41945;BME280;63122;52.424;13.458;2023-06-22T10:14:54;101302.78;;;26.66;58.66
41945;BME280;63122;52.424;13.458;2023-06-22T10:16:52;101306.44;;;26.77;55.88
41945;BME280;63122;52.424;13.458;2023-06-22T10:18:50;101310.06;;;26.83;53.64
41945;BME280;63122;52.424;13.458;2023-06-22T10:20:48;101309.00;;;26.84;55.75
41945;BME280;63122;52.424;13.458;2023-06-22T10:22:44;101304.09;;;26.81;54.51
41945;BME280;63122;52.424;13.458;2023-06-22T10:24:40;101313.44;;;26.73;56.77
41945;BME280;63122;52.424;13.458;2023-06-22T10:26:36;101302.91;;;26.88;55.14
41945;BME280;63122;52.424;13.458;2023-06-22T10:28:32;101314.13;;;26.97;55.06
41945;BME280;63122;52.424;13.458;2023-06-22T10:30:29;101306.03;;;26.97;53.70
41945;BME280;63122;52.424;13.458;2023-06-22T10:32:25;101300.91;;;27.01;52.76
41945;BME280;63122;52.424;13.458;2023-06-22T10:34:20;101297.91;;;26.97;51.95
41945;BME280;63122;52.424;13.458;2023-06-22T10:36:16;101294.19;;;27.04;53.04
41945;BME280;63122;52.424;13.458;2023-06-22T10:38:11;101301.47;;;27.03;52.96
41945;BME280;63122;52.424;13.458;2023-06-22T10:40:08;101290.91;;;27.01;53.93
41945;BME280;63122;52.424;13.458;2023-06-22T10:42:03;101288.44;;;27.00;55.84
41945;BME280;63122;52.424;13.458;2023-06-22T10:43:59;101292.06;;;27.06;55.18
41945;BME280;63122;52.424;13.458;2023-06-22T10:45:57;101288.28;;;27.07;53.94
41945;BME280;63122;52.424;13.458;2023-06-22T10:47:52;101295.75;;;27.16;54.82
41945;BME280;63122;52.424;13.458;2023-06-22T10:49:47;101288.50;;;27.05;54.71
41945;BME280;63122;52.424;13.458;2023-06-22T10:51:43;101284.97;;;27.22;53.75
41945;BME280;63122;52.424;13.458;2023-06-22T10:53:38;101283.19;;;27.50;52.16
41945;BME280;63122;52.424;13.458;2023-06-22T10:55:33;101289.53;;;27.55;51.95
41945;BME280;63122;52.424;13.458;2023-06-22T10:57:47;101281.03;;;27.69;48.98
41945;BME280;63122;52.424;13.458;2023-06-22T10:59:42;101279.56;;;27.83;50.49
41945;BME280;63122;52.424;13.458;2023-06-22T11:01:40;101270.88;;;27.81;52.61
41945;BME280;63122;52.424;13.458;2023-06-22T11:03:36;101272.44;;;27.99;48.90
41945;BME280;63122;52.424;13.458;2023-06-22T11:05:32;101269.88;;;27.87;49.44
41945;BME280;63122;52.424;13.458;2023-06-22T11:07:28;101264.03;;;28.01;48.95
41945;BME280;63122;52.424;13.458;2023-06-22T11:17:18;101261.88;;;28.58;46.73
41945;BME280;63122;52.424;13.458;2023-06-22T11:18:47;101252.41;;;28.60;47.84
41945;BME280;63122;52.424;13.458;2023-06-22T11:20:43;101246.97;;;28.60;47.93
41945;BME280;63122;52.424;13.458;2023-06-22T11:22:40;101246.75;;;28.62;49.80
41945;BME280;63122;52.424;13.458;2023-06-22T11:24:36;101239.78;;;28.77;49.42
41945;BME280;63122;52.424;13.458;2023-06-22T11:26:32;101238.47;;;28.79;50.54
41945;BME280;63122;52.424;13.458;2023-06-22T11:28:28;101239.91;;;28.92;49.98
41945;BME280;63122;52.424;13.458;2023-06-22T11:30:24;101239.41;;;29.00;49.72
41945;BME280;63122;52.424;13.458;2023-06-22T11:32:20;101238.63;;;29.05;49.98
41945;BME280;63122;52.424;13.458;2023-06-22T11:34:18;101230.25;;;29.12;49.06
41945;BME280;63122;52.424;13.458;2023-06-22T11:36:14;101233.81;;;29.23;48.52
41945;BME280;63122;52.424;13.458;2023-06-22T11:38:10;101228.28;;;29.50;45.25
41945;BME280;63122;52.424;13.458;2023-06-22T11:40:06;101227.13;;;29.41;46.37
41945;BME280;63122;52.424;13.458;2023-06-22T11:42:03;101223.41;;;29.57;45.93
41945;BME280;63122;52.424;13.458;2023-06-22T11:43:58;101228.38;;;29.86;45.04
41945;BME280;63122;52.424;13.458;2023-06-22T11:45:53;101231.66;;;29.99;45.76
41945;BME280;63122;52.424;13.458;2023-06-22T11:47:50;101240.41;;;30.06;44.02
41945;BME280;63122;52.424;13.458;2023-06-22T11:49:48;101239.88;;;30.25;42.56
41945;BME280;63122;52.424;13.458;2023-06-22T11:51:46;101240.97;;;30.39;40.96
41945;BME280;63122;52.424;13.458;2023-06-22T11:53:42;101238.25;;;30.44;40.52
41945;BME280;63122;52.424;13.458;2023-06-22T11:55:37;101242.91;;;30.49;42.09
41945;BME280;63122;52.424;13.458;2023-06-22T11:57:33;101250.81;;;30.66;40.86
41945;BME280;63122;52.424;13.458;2023-06-22T11:59:28;101249.44;;;30.74;42.58
41945;BME280;63122;52.424;13.458;2023-06-22T12:01:24;101237.97;;;30.56;43.37
41945;BME280;63122;52.424;13.458;2023-06-22T12:03:19;101232.78;;;30.55;43.14
41945;BME280;63122;52.424;13.458;2023-06-22T12:05:19;101236.06;;;30.78;42.65
41945;BME280;63122;52.424;13.458;2023-06-22T12:07:16;101235.75;;;31.10;39.26
41945;BME280;63122;52.424;13.458;2023-06-22T12:09:12;101232.78;;;30.96;39.97
41945;BME280;63122;52.424;13.458;2023-06-22T12:11:09;101223.50;;;31.02;40.31
41945;BME280;63122;52.424;13.458;2023-06-22T12:13:05;101224.91;;;30.84;42.11
41945;BME280;63122;52.424;13.458;2023-06-22T12:15:00;101217.59;;;30.69;41.77
41945;BME280;63122;52.424;13.458;2023-06-22T12:16:57;101211.31;;;30.69;41.57
41945;BME280;63122;52.424;13.458;2023-06-22T12:18:53;101212.09;;;30.85;40.72
41945;BME280;63122;52.424;13.458;2023-06-22T12:20:51;101210.47;;;30.94;40.85
41945;BME280;63122;52.424;13.458;2023-06-22T12:22:46;101214.56;;;30.86;42.29
41945;BME280;63122;52.424;13.458;2023-06-22T12:24:44;101204.75;;;30.85;42.67
41945;BME280;63122;52.424;13.458;2023-06-22T12:26:39;101208.84;;;30.78;41.56
41945;BME280;63122;52.424;13.458;2023-06-22T12:28:35;101201.22;;;30.90;41.59
41945;BME280;63122;52.424;13.458;2023-06-22T12:30:30;101205.50;;;31.07;41.20
41945;BME280;63122;52.424;13.458;2023-06-22T12:32:28;101201.16;;;31.00;41.84
41945;BME280;63122;52.424;13.458;2023-06-22T12:34:24;101195.75;;;30.95;41.65
41945;BME280;63122;52.424;13.458;2023-06-22T12:36:22;101192.94;;;31.11;40.73
41945;BME280;63122;52.424;13.458;2023-06-22T12:38:17;101195.69;;;31.21;40.38
41945;BME280;63122;52.424;13.458;2023-06-22T12:40:13;101195.13;;;31.24;40.72
41945;BME280;63122;52.424;13.458;2023-06-22T12:42:08;101185.03;;;31.30;39.83
41945;BME280;63122;52.424;13.458;2023-06-22T12:44:04;101183.94;;;31.26;39.95
41945;BME280;63122;52.424;13.458;2023-06-22T12:45:59;101180.66;;;31.18;40.28
41945;BME280;63122;52.424;13.458;2023-06-22T12:47:55;101169.81;;;31.08;41.30
41945;BME280;63122;52.424;13.458;2023-06-22T12:49:51;101174.72;;;31.11;40.67
41945;BME280;63122;52.424;13.458;2023-06-22T12:51:49;101170.88;;;31.23;41.48
41945;BME280;63122;52.424;13.458;2023-06-22T12:53:44;101165.41;;;31.28;41.14
41945;BME280;63122;52.424;13.458;2023-06-22T12:55:40;101167.28;;;31.33;41.09
41945;BME280;63122;52.424;13.458;2023-06-22T12:57:35;101169.13;;;31.48;40.69
41945;BME280;63122;52.424;13.458;2023-06-22T12:59:30;101174.75;;;31.62;39.54
41945;BME280;63122;52.424;13.458;2023-06-22T13:01:26;101169.34;;;31.56;39.53
41945;BME280;63122;52.424;13.458;2023-06-22T13:03:22;101159.03;;;31.48;39.97
41945;BME280;63122;52.424;13.458;2023-06-22T13:05:20;101150.34;;;31.46;40.86
41945;BME280;63122;52.424;13.458;2023-06-22T13:07:18;101153.66;;;31.83;39.85
41945;BME280;63122;52.424;13.458;2023-06-22T13:09:15;101143.09;;;32.06;36.65
41945;BME280;63122;52.424;13.458;2023-06-22T13:11:13;101146.25;;;31.88;38.85
41945;BME280;63122;52.424;13.458;2023-06-22T13:13:08;101145.41;;;31.93;38.95
41945;BME280;63122;52.424;13.458;2023-06-22T13:15:05;101139.94;;;32.23;38.71
41945;BME280;63122;52.424;13.458;2023-06-22T13:17:00;101130.88;;;32.33;39.35
41945;BME280;63122;52.424;13.458;2023-06-22T13:18:56;101124.22;;;32.14;39.64
41945;BME280;63122;52.424;13.458;2023-06-22T13:20:51;101133.06;;;32.30;39.48
41945;BME280;63122;52.424;13.458;2023-06-22T13:22:49;101127.25;;;32.42;39.06
41945;BME280;63122;52.424;13.458;2023-06-22T13:24:45;101120.16;;;32.41;38.88
41945;BME280;63122;52.424;13.458;2023-06-22T13:26:41;101113.63;;;32.67;38.19
41945;BME280;63122;52.424;13.458;2023-06-22T13:28:36;101121.03;;;32.61;37.75
41945;BME280;63122;52.424;13.458;2023-06-22T13:30:32;101116.94;;;32.88;37.10
41945;BME280;63122;52.424;13.458;2023-06-22T13:32:27;101121.56;;;32.87;38.31
41945;BME280;63122;52.424;13.458;2023-06-22T13:34:23;101122.47;;;32.78;38.55
41945;BME280;63122;52.424;13.458;2023-06-22T13:36:19;101114.88;;;32.74;38.84
41945;BME280;63122;52.424;13.458;2023-06-22T13:38:19;101106.22;;;32.67;38.01
41945;BME280;63122;52.424;13.458;2023-06-22T13:40:16;101109.13;;;32.76;38.42
41945;BME280;63122;52.424;13.458;2023-06-22T13:42:12;101107.28;;;32.96;38.15
41945;BME280;63122;52.424;13.458;2023-06-22T13:44:07;101107.16;;;32.82;37.56
41945;BME280;63122;52.424;13.458;2023-06-22T13:46:03;101108.38;;;32.70;38.44
41945;BME280;63122;52.424;13.458;2023-06-22T13:47:58;101100.09;;;32.75;37.90
41945;BME280;63122;52.424;13.458;2023-06-22T13:49:54;101100.47;;;32.93;37.54
41945;BME280;63122;52.424;13.458;2023-06-22T13:51:50;101090.75;;;33.06;37.06
41945;BME280;63122;52.424;13.458;2023-06-22T13:53:48;101080.50;;;32.98;37.05
41945;BME280;63122;52.424;13.458;2023-06-22T13:55:43;101081.34;;;32.93;37.57
41945;BME280;63122;52.424;13.458;2023-06-22T13:57:42;101070.75;;;33.11;38.48
41945;BME280;63122;52.424;13.458;2023-06-22T13:59:37;101081.06;;;33.33;37.46
41945;BME280;63122;52.424;13.458;2023-06-22T14:01:33;101078.72;;;33.45;37.75
41945;BME280;63122;52.424;13.458;2023-06-22T14:03:28;101071.16;;;33.56;37.72
41945;BME280;63122;52.424;13.458;2023-06-22T14:05:24;101066.31;;;33.53;37.40
41945;BME280;63122;52.424;13.458;2023-06-22T14:07:19;101062.31;;;33.65;37.07
41945;BME280;63122;52.424;13.458;2023-06-22T14:09:17;101056.28;;;33.82;36.60
41945;BME280;63122;52.424;13.458;2023-06-22T14:11:12;101058.00;;;33.58;36.54
41945;BME280;63122;52.424;13.458;2023-06-22T14:13:08;101057.91;;;33.64;36.84
41945;BME280;63122;52.424;13.458;2023-06-22T14:15:04;101050.25;;;33.66;36.59
41945;BME280;63122;52.424;13.458;2023-06-22T14:16:59;101054.84;;;33.32;37.25
41945;BME280;63122;52.424;13.458;2023-06-22T14:18:54;101043.78;;;33.23;38.36
41945;BME280;63122;52.424;13.458;2023-06-22T14:20:50;101045.84;;;33.51;38.07
41945;BME280;63122;52.424;13.458;2023-06-22T14:22:45;101037.69;;;33.65;37.47
41945;BME280;63122;52.424;13.458;2023-06-22T14:24:43;101047.56;;;33.80;36.64
41945;BME280;63122;52.424;13.458;2023-06-22T14:26:38;101036.72;;;33.88;36.30
41945;BME280;63122;52.424;13.458;2023-06-22T14:28:33;101034.91;;;33.84;36.01
41945;BME280;63122;52.424;13.458;2023-06-22T14:30:28;101040.66;;;33.82;36.91
41945;BME280;63122;52.424;13.458;2023-06-22T14:32:24;101029.84;;;33.91;35.93
41945;BME280;63122;52.424;13.458;2023-06-22T14:34:32;101032.06;;;33.89;35.46
41945;BME280;63122;52.424;13.458;2023-06-22T14:36:51;101033.34;;;34.11;34.65
41945;BME280;63122;52.424;13.458;2023-06-22T14:38:49;101034.13;;;33.97;35.16
41945;BME280;63122;52.424;13.458;2023-06-22T14:40:47;101036.69;;;34.22;35.57
41945;BME280;63122;52.424;13.458;2023-06-22T14:43:02;101026.13;;;34.29;35.53
41945;BME280;63122;52.424;13.458;2023-06-22T14:44:58;101011.34;;;34.30;35.01
41945;BME280;63122;52.424;13.458;2023-06-22T14:46:59;101001.09;;;34.36;35.35
41945;BME280;63122;52.424;13.458;2023-06-22T14:48:55;101000.78;;;34.23;35.49
41945;BME280;63122;52.424;13.458;2023-06-22T14:50:50;100996.63;;;34.40;34.87
41945;BME280;63122;52.424;13.458;2023-06-22T14:52:46;100995.31;;;34.37;34.93
41945;BME280;63122;52.424;13.458;2023-06-22T14:54:41;100985.47;;;34.22;35.46
41945;BME280;63122;52.424;13.458;2023-06-22T14:56:39;100978.25;;;34.40;35.14
41945;BME280;63122;52.424;13.458;2023-06-22T14:58:35;100968.13;;;34.41;35.04
41945;BME280;63122;52.424;13.458;2023-06-22T15:00:31;100964.28;;;34.56;35.40
41945;BME280;63122;52.424;13.458;2023-06-22T15:02:28;100962.22;;;34.47;35.52
41945;BME280;63122;52.424;13.458;2023-06-22T15:04:27;100959.81;;;34.46;35.13
41945;BME280;63122;52.424;13.458;2023-06-22T15:06:27;100963.34;;;34.60;35.65
41945;BME280;63122;52.424;13.458;2023-06-22T15:08:24;100959.56;;;34.70;34.88
41945;BME280;63122;52.424;13.458;2023-06-22T15:10:23;100964.06;;;34.38;34.57
41945;BME280;63122;52.424;13.458;2023-06-22T15:12:21;100958.09;;;34.50;35.48
41945;BME280;63122;52.424;13.458;2023-06-22T15:14:16;100949.78;;;34.41;34.93
41945;BME280;63122;52.424;13.458;2023-06-22T15:16:12;100956.53;;;34.72;34.06
41945;BME280;63122;52.424;13.458;2023-06-22T15:18:08;100954.91;;;34.71;34.35
41945;BME280;63122;52.424;13.458;2023-06-22T15:20:04;100961.31;;;34.66;34.47
41945;BME280;63122;52.424;13.458;2023-06-22T15:22:03;100967.75;;;34.84;34.72
41945;BME280;63122;52.424;13.458;2023-06-22T15:23:58;100971.66;;;35.06;34.65
41945;BME280;63122;52.424;13.458;2023-06-22T15:26:00;100968.63;;;34.94;35.50
41945;BME280;63122;52.424;13.458;2023-06-22T15:28:05;100962.50;;;35.11;35.05
41945;BME280;63122;52.424;13.458;2023-06-22T15:30:00;100958.00;;;35.15;34.01
41945;BME280;63122;52.424;13.458;2023-06-22T15:31:56;100950.56;;;35.07;33.02
41945;BME280;63122;52.424;13.458;2023-06-22T15:33:52;100944.16;;;34.97;34.00
41945;BME280;63122;52.424;13.458;2023-06-22T15:35:47;100938.25;;;35.04;34.29
41945;BME280;63122;52.424;13.458;2023-06-22T15:37:45;100932.22;;;35.16;33.58
41945;BME280;63122;52.424;13.458;2023-06-22T15:39:41;100933.78;;;35.08;34.34
41945;BME280;63122;52.424;13.458;2023-06-22T15:41:39;100924.63;;;35.13;34.68
41945;BME280;63122;52.424;13.458;2023-06-22T15:43:38;100924.50;;;35.18;33.70
41945;BME280;63122;52.424;13.458;2023-06-22T15:45:33;100911.16;;;35.02;34.11
41945;BME280;63122;52.424;13.458;2023-06-22T15:47:29;100908.63;;;35.06;34.00
41945;BME280;63122;52.424;13.458;2023-06-22T15:49:25;100901.25;;;34.70;34.71
41945;BME280;63122;52.424;13.458;2023-06-22T15:51:20;100897.81;;;34.64;34.58
41945;BME280;63122;52.424;13.458;2023-06-22T15:53:16;100905.59;;;34.34;34.82
41945;BME280;63122;52.424;13.458;2023-06-22T15:55:13;100912.47;;;34.31;35.52
41945;BME280;63122;52.424;13.458;2023-06-22T15:57:08;100913.38;;;34.41;35.50
41945;BME280;63122;52.424;13.458;2023-06-22T15:59:08;100906.94;;;34.59;35.32
41945;BME280;63122;52.424;13.458;2023-06-22T16:01:03;100914.41;;;34.31;34.91
41945;BME280;63122;52.424;13.458;2023-06-22T16:03:01;100904.19;;;34.37;35.40
41945;BME280;63122;52.424;13.458;2023-06-22T16:04:57;100913.50;;;34.36;35.58
41945;BME280;63122;52.424;13.458;2023-06-22T16:06:53;100917.94;;;34.31;35.32
41945;BME280;63122;52.424;13.458;2023-06-22T16:08:49;100912.81;;;34.30;34.94
41945;BME280;63122;52.424;13.458;2023-06-22T16:10:45;100916.78;;;34.24;35.62
41945;BME280;63122;52.424;13.458;2023-06-22T16:12:42;100907.59;;;34.42;35.29
41945;BME280;63122;52.424;13.458;2023-06-22T16:14:41;100900.81;;;34.40;34.25
41945;BME280;63122;52.424;13.458;2023-06-22T16:16:36;100886.44;;;34.34;35.14
41945;BME280;63122;52.424;13.458;2023-06-22T16:18:32;100881.94;;;34.38;35.28
41945;BME280;63122;52.424;13.458;2023-06-22T16:20:27;100866.78;;;34.32;35.42
41945;BME280;63122;52.424;13.458;2023-06-22T16:22:24;100870.38;;;34.41;35.28
41945;BME280;63122;52.424;13.458;2023-06-22T16:24:19;100867.81;;;34.59;35.69
41945;BME280;63122;52.424;13.458;2023-06-22T16:26:15;100858.81;;;34.44;35.05
41945;BME280;63122;52.424;13.458;2023-06-22T16:28:10;100857.34;;;34.24;35.93
41945;BME280;63122;52.424;13.458;2023-06-22T16:30:13;100851.78;;;34.15;35.73
41945;BME280;63122;52.424;13.458;2023-06-22T16:32:28;100857.69;;;34.23;35.88
41945;BME280;63122;52.424;13.458;2023-06-22T16:34:24;100837.84;;;34.03;35.56
41945;BME280;63122;52.424;13.458;2023-06-22T16:36:19;100837.72;;;33.94;35.54
41945;BME280;63122;52.424;13.458;2023-06-22T16:38:15;100832.78;;;33.96;36.08
41945;BME280;63122;52.424;13.458;2023-06-22T16:40:10;100835.13;;;33.75;35.76
41945;BME280;63122;52.424;13.458;2023-06-22T16:42:07;100829.16;;;33.59;35.31
41945;BME280;63122;52.424;13.458;2023-06-22T16:44:03;100824.41;;;33.51;36.13
41945;BME280;63122;52.424;13.458;2023-06-22T16:46:01;100833.41;;;33.51;36.76
41945;BME280;63122;52.424;13.458;2023-06-22T16:47:58;100833.41;;;33.51;36.69
41945;BME280;63122;52.424;13.458;2023-06-22T16:49:54;100827.28;;;33.40;36.96
41945;BME280;63122;52.424;13.458;2023-06-22T16:51:49;100818.56;;;33.24;37.79
41945;BME280;63122;52.424;13.458;2023-06-22T17:03:29;100820.25;;;32.92;39.11
41945;BME280;63122;52.424;13.458;2023-06-22T17:05:26;100817.94;;;32.99;37.91
41945;BME280;63122;52.424;13.458;2023-06-22T17:07:22;100810.44;;;32.91;38.33
41945;BME280;63122;52.424;13.458;2023-06-22T17:09:21;100804.53;;;32.84;38.14
41945;BME280;63122;52.424;13.458;2023-06-22T17:11:18;100796.63;;;32.82;38.47
41945;BME280;63122;52.424;13.458;2023-06-22T17:13:16;100797.97;;;32.66;38.36
41945;BME280;63122;52.424;13.458;2023-06-22T17:15:12;100801.56;;;32.47;38.45
41945;BME280;63122;52.424;13.458;2023-06-22T17:17:10;100793.81;;;32.54;38.83
41945;BME280;63122;52.424;13.458;2023-06-22T17:19:09;100807.16;;;32.56;38.61
41945;BME280;63122;52.424;13.458;2023-06-22T17:21:04;100814.72;;;32.45;39.14
41945;BME280;63122;52.424;13.458;2023-06-22T17:23:02;100815.66;;;32.35;39.34
41945;BME280;63122;52.424;13.458;2023-06-22T17:24:58;100815.72;;;32.30;39.72
41945;BME280;63122;52.424;13.458;2023-06-22T17:26:55;100814.16;;;32.24;39.66
41945;BME280;63122;52.424;13.458;2023-06-22T17:28:54;100809.44;;;32.10;40.01
41945;BME280;63122;52.424;13.458;2023-06-22T17:31:08;100807.72;;;31.95;39.93
41945;BME280;63122;52.424;13.458;2023-06-22T17:33:08;100787.81;;;31.95;40.57
41945;BME280;63122;52.424;13.458;2023-06-22T17:35:09;100783.50;;;32.13;40.17
41945;BME280;63122;52.424;13.458;2023-06-22T17:37:08;100769.03;;;32.12;39.57
41945;BME280;63122;52.424;13.458;2023-06-22T17:39:03;100764.75;;;32.06;40.42
41945;BME280;63122;52.424;13.458;2023-06-22T17:41:00;100775.97;;;32.05;40.08
41945;BME280;63122;52.424;13.458;2023-06-22T17:43:03;100779.94;;;32.12;40.00
41945;BME280;63122;52.424;13.458;2023-06-22T17:45:03;100777.88;;;32.04;40.67
41945;BME280;63122;52.424;13.458;2023-06-22T17:46:58;100783.19;;;31.95;40.34
41945;BME280;63122;52.424;13.458;2023-06-22T17:48:56;100768.88;;;31.84;41.31
41945;BME280;63122;52.424;13.458;2023-06-22T17:50:55;100757.56;;;31.72;41.24
41945;BME280;63122;52.424;13.458;2023-06-22T17:52:50;100757.63;;;31.67;40.96
41945;BME280;63122;52.424;13.458;2023-06-22T17:54:50;100740.81;;;31.59;41.28
41945;BME280;63122;52.424;13.458;2023-06-22T17:57:04;100731.50;;;31.41;41.64
41945;BME280;63122;52.424;13.458;2023-06-22T17:59:08;100729.03;;;31.45;41.74
41945;BME280;63122;52.424;13.458;2023-06-22T18:01:04;100732.78;;;31.49;41.19
41945;BME280;63122;52.424;13.458;2023-06-22T18:02:59;100737.34;;;31.54;41.21
41945;BME280;63122;52.424;13.458;2023-06-22T18:04:56;100725.28;;;31.60;41.02
41945;BME280;63122;52.424;13.458;2023-06-22T18:06:55;100724.09;;;31.47;41.35
41945;BME280;63122;52.424;13.458;2023-06-22T18:08:51;100719.13;;;31.30;41.96
41945;BME280;63122;52.424;13.458;2023-06-22T18:10:48;100710.44;;;31.28;42.02
41945;BME280;63122;52.424;13.458;2023-06-22T18:12:52;100712.97;;;31.19;42.01
41945;BME280;63122;52.424;13.458;2023-06-22T18:14:55;100709.72;;;31.12;41.97
41945;BME280;63122;52.424;13.458;2023-06-22T18:17:28;100707.56;;;31.14;42.45
41945;BME280;63122;52.424;13.458;2023-06-22T18:19:48;100717.78;;;30.98;42.63
41945;BME280;63122;52.424;13.458;2023-06-22T18:21:57;100715.44;;;30.91;42.77
41945;BME280;63122;52.424;13.458;2023-06-22T18:23:53;100711.09;;;30.85;42.95
41945;BME280;63122;52.424;13.458;2023-06-22T18:25:49;100702.72;;;30.81;43.03
41945;BME280;63122;52.424;13.458;2023-06-22T18:27:45;100698.91;;;30.82;43.33
41945;BME280;63122;52.424;13.458;2023-06-22T18:29:41;100710.06;;;30.81;43.23
41945;BME280;63122;52.424;13.458;2023-06-22T18:31:38;100713.94;;;30.74;43.23
41945;BME280;63122;52.424;13.458;2023-06-22T18:33:34;100727.56;;;30.74;43.40
41945;BME280;63122;52.424;13.458;2023-06-22T18:35:29;100734.63;;;30.76;43.45
41945;BME280;63122;52.424;13.458;2023-06-22T18:37:30;100733.31;;;30.73;43.02
41945;BME280;63122;52.424;13.458;2023-06-22T18:39:27;100735.19;;;30.72;43.05
41945;BME280;63122;52.424;13.458;2023-06-22T18:41:24;100729.50;;;30.69;43.40
41945;BME280;63122;52.424;13.458;2023-06-22T18:43:27;100728.47;;;30.65;43.21
41945;BME280;63122;52.424;13.458;2023-06-22T18:45:23;100716.78;;;30.59;43.68
41945;BME280;63122;52.424;13.458;2023-06-22T18:47:26;100705.13;;;30.53;44.12
41945;BME280;63122;52.424;13.458;2023-06-22T18:49:22;100704.09;;;30.49;43.81
41945;BME280;63122;52.424;13.458;2023-06-22T18:51:18;100700.00;;;30.46;43.62
41945;BME280;63122;52.424;13.458;2023-06-22T18:53:27;100694.09;;;30.39;43.38
41945;BME280;63122;52.424;13.458;2023-06-22T18:55:25;100683.22;;;30.39;43.10
41945;BME280;63122;52.424;13.458;2023-06-22T18:57:22;100671.03;;;30.31;43.64
41945;BME280;63122;52.424;13.458;2023-06-22T18:59:47;100654.81;;;30.21;43.93
41945;BME280;63122;52.424;13.458;2023-06-22T19:01:43;100644.72;;;30.22;43.80
41945;BME280;63122;52.424;13.458;2023-06-22T19:03:38;100639.38;;;30.11;44.58
41945;BME280;63122;52.424;13.458;2023-06-22T19:05:38;100635.34;;;30.03;45.53
41945;BME280;63122;52.424;13.458;2023-06-22T19:07:58;100629.69;;;29.95;43.74
41945;BME280;63122;52.424;13.458;2023-06-22T19:24:56;100657.97;;;29.49;46.24
41945;BME280;63122;52.424;13.458;2023-06-22T19:26:55;100664.00;;;29.40;46.76
41945;BME280;63122;52.424;13.458;2023-06-22T19:28:53;100662.91;;;29.31;46.33
41945;BME280;63122;52.424;13.458;2023-06-22T19:30:50;100670.28;;;29.25;46.97
41945;BME280;63122;52.424;13.458;2023-06-22T19:32:47;100669.19;;;29.26;46.46
41945;BME280;63122;52.424;13.458;2023-06-22T19:34:45;100667.25;;;29.27;46.37